Time;durP1;ratioP1;P1;durP2;ratioP2;P2;SDS_P1;SDS_P2;PMS_P1;PMS_P2;Temp;Humidity;BMP_temperature;BMP_pressure;BME280_temperature;BME280_humidity;BME280_pressure;Samples;Min_cycle;Max_cycle;Signal;HPM_P1;HPM_P2
2021/12/10 00:01:43;;;;;;;52.77;19.40;;;8.70;91.30;;;;;;5120276;27;20192;-76
2021/12/10 00:04:13;;;;;;;46.10;18.07;;;8.60;91.30;;;;;;5115161;27;20253;-76
2021/12/10 00:06:44;;;;;;;51.17;18.30;;;8.60;91.30;;;;;;5120151;27;20195;-75
2021/12/10 00:09:17;;;;;;;57.90;18.63;;;8.60;91.20;;;;;;5121614;27;20866;-76
2021/12/10 00:11:47;;;;;;;51.73;18.37;;;8.70;91.30;;;;;;5122541;27;20192;-76
2021/12/10 00:14:16;;;;;;;57.20;18.43;;;8.70;91.30;;;;;;5115538;27;21066;-77
2021/12/10 00:16:46;;;;;;;45.13;17.50;;;8.80;91.20;;;;;;5121170;27;20262;-77
2021/12/10 00:19:27;;;;;;;47.23;17.87;;;8.70;91.20;;;;;;5110274;27;20270;-76
2021/12/10 00:22:00;;;;;;;44.57;17.47;;;8.70;91.20;;;;;;5121790;27;20527;-76
2021/12/10 00:24:30;;;;;;;48.50;17.13;;;8.80;91.20;;;;;;5122864;27;20199;-76
2021/12/10 00:27:03;;;;;;;45.70;18.07;;;8.80;91.20;;;;;;5114644;27;20192;-76
2021/12/10 00:29:32;;;;;;;50.90;18.57;;;8.90;91.20;;;;;;5113688;27;20196;-76
2021/12/10 00:32:08;;;;;;;51.03;18.53;;;8.90;91.20;;;;;;5113469;27;20207;-77
2021/12/10 00:34:41;;;;;;;44.60;17.57;;;8.90;91.10;;;;;;5116903;27;20227;-76
2021/12/10 00:37:12;;;;;;;50.97;18.63;;;9.00;91.10;;;;;;5124853;27;20204;-77
2021/12/10 00:39:44;;;;;;;47.57;18.80;;;9.00;91.00;;;;;;5117422;27;20185;-77
2021/12/10 00:42:14;;;;;;;47.63;18.20;;;9.00;91.00;;;;;;5115679;27;20188;-76
2021/12/10 00:44:42;;;;;;;52.13;17.83;;;9.00;91.00;;;;;;5109020;27;20244;-76
2021/12/10 00:47:12;;;;;;;45.87;16.90;;;9.10;91.00;;;;;;5112688;27;20192;-77
2021/12/10 00:49:41;;;;;;;43.20;16.37;;;9.10;91.00;;;;;;5113065;27;20727;-76
2021/12/10 00:52:12;;;;;;;49.10;17.13;;;9.10;91.00;;;;;;5113664;27;20196;-76
2021/12/10 00:54:40;;;;;;;43.43;16.43;;;9.00;91.00;;;;;;5116203;27;20761;-76
2021/12/10 00:57:09;;;;;;;51.30;17.57;;;9.00;91.10;;;;;;5115273;27;20825;-76
2021/12/10 00:59:39;;;;;;;39.57;15.17;;;9.00;91.20;;;;;;5120502;27;20193;-76
2021/12/10 01:02:11;;;;;;;49.80;17.20;;;9.00;91.10;;;;;;5109328;27;20205;-76
2021/12/10 01:04:44;;;;;;;45.67;16.53;;;9.00;91.20;;;;;;5112810;27;20572;-75
2021/12/10 01:07:16;;;;;;;50.03;17.33;;;8.90;91.20;;;;;;5122488;27;20237;-75
2021/12/10 01:09:48;;;;;;;47.57;16.13;;;8.90;91.30;;;;;;5119611;27;20213;-77
2021/12/10 01:12:20;;;;;;;53.00;16.43;;;8.90;91.30;;;;;;5120185;27;20193;-76
2021/12/10 01:15:04;;;;;;;52.60;16.03;;;8.90;91.30;;;;;;5119946;27;20184;-77
2021/12/10 01:26:09;;;;;;;44.50;15.30;;;8.90;91.30;;;;;;5117755;27;20196;-76
2021/12/10 01:28:40;;;;;;;40.70;16.10;;;8.90;91.40;;;;;;5117874;27;20204;-76
2021/12/10 01:31:10;;;;;;;45.50;15.23;;;8.90;91.40;;;;;;5120525;27;20292;-75
2021/12/10 01:33:40;;;;;;;43.50;15.07;;;9.00;91.40;;;;;;5112702;27;20203;-75
2021/12/10 01:36:10;;;;;;;43.63;17.33;;;9.00;91.40;;;;;;5124353;27;20226;-76
2021/12/10 01:38:44;;;;;;;45.60;16.33;;;9.00;91.50;;;;;;5114361;27;20194;-77
2021/12/10 01:41:17;;;;;;;42.17;15.13;;;9.00;91.40;;;;;;5120424;27;20200;-77
2021/12/10 01:43:47;;;;;;;43.80;16.57;;;9.00;91.50;;;;;;5116847;27;20212;-77
2021/12/10 01:46:24;;;;;;;42.30;16.10;;;8.90;91.50;;;;;;5112390;27;20199;-76
2021/12/10 01:48:57;;;;;;;52.80;15.87;;;8.90;91.60;;;;;;5114262;27;20191;-77
2021/12/10 01:51:30;;;;;;;45.57;15.17;;;8.90;91.50;;;;;;5109992;27;20189;-77
2021/12/10 01:54:05;;;;;;;46.67;15.37;;;8.90;91.50;;;;;;5115570;27;20228;-76
2021/12/10 01:56:37;;;;;;;41.57;15.67;;;8.90;91.60;;;;;;5113763;27;20737;-77
2021/12/10 01:59:09;;;;;;;45.23;16.80;;;8.90;91.60;;;;;;5108394;27;20176;-76
2021/12/10 02:01:41;;;;;;;43.77;15.97;;;8.80;91.70;;;;;;5112123;28;20204;-75
2021/12/10 02:04:13;;;;;;;39.90;14.53;;;8.80;91.70;;;;;;5122811;27;20218;-76
2021/12/10 02:06:45;;;;;;;37.47;14.30;;;8.90;91.70;;;;;;5115928;27;20192;-76
2021/12/10 02:09:14;;;;;;;47.22;16.40;;;8.90;91.70;;;;;;5119315;28;21079;-77
2021/12/10 02:11:43;;;;;;;38.57;15.27;;;8.90;91.70;;;;;;5116900;28;20200;-76
2021/12/10 02:14:12;;;;;;;40.80;14.83;;;9.00;91.70;;;;;;5120718;27;20204;-77
2021/12/10 02:16:43;;;;;;;41.23;14.33;;;9.00;91.70;;;;;;5111950;27;20241;-76
2021/12/10 02:19:13;;;;;;;48.20;16.57;;;9.00;91.80;;;;;;5122164;27;20193;-75
2021/12/10 02:21:43;;;;;;;35.40;13.13;;;9.00;91.70;;;;;;5117950;27;20219;-76
2021/12/10 02:24:12;;;;;;;36.53;14.83;;;9.00;91.70;;;;;;5113666;27;20205;-77
2021/12/10 02:26:43;;;;;;;35.17;14.50;;;9.00;91.70;;;;;;5114027;28;20612;-76
2021/12/10 02:29:12;;;;;;;41.90;14.93;;;9.10;91.70;;;;;;5121915;27;20535;-77
2021/12/10 02:31:41;;;;;;;48.03;15.00;;;9.10;91.60;;;;;;5113721;27;20195;-76
2021/12/10 02:34:10;;;;;;;44.23;15.47;;;9.10;91.60;;;;;;5118967;27;20193;-76
2021/12/10 02:36:41;;;;;;;40.07;15.10;;;9.10;91.60;;;;;;5120576;27;20598;-76
2021/12/10 02:39:12;;;;;;;42.13;14.70;;;9.10;91.60;;;;;;5114631;28;20189;-76
2021/12/10 02:41:42;;;;;;;36.87;14.80;;;9.10;91.60;;;;;;5123294;28;20541;-76
2021/12/10 02:44:13;;;;;;;40.87;15.33;;;9.10;91.60;;;;;;5114996;27;20208;-76
2021/12/10 02:46:42;;;;;;;32.13;14.73;;;9.20;91.60;;;;;;5118101;28;20192;-76
2021/12/10 02:49:13;;;;;;;38.60;14.37;;;9.20;91.50;;;;;;5116653;28;20236;-77
2021/12/10 02:51:42;;;;;;;40.03;14.97;;;9.20;91.50;;;;;;5119645;27;20200;-76
2021/12/10 02:54:20;;;;;;;41.40;14.50;;;9.20;91.50;;;;;;5114604;28;20200;-76
2021/12/10 02:56:49;;;;;;;45.50;14.93;;;9.30;91.50;;;;;;5117713;28;20188;-77
2021/12/10 02:59:18;;;;;;;38.67;13.77;;;9.30;91.50;;;;;;5114230;28;20196;-77
2021/12/10 03:01:50;;;;;;;42.53;14.00;;;9.30;91.40;;;;;;5115202;27;20200;-76
2021/12/10 03:04:19;;;;;;;42.57;14.97;;;9.40;91.30;;;;;;5123590;27;20192;-77
2021/12/10 03:06:50;;;;;;;36.77;14.57;;;9.40;91.30;;;;;;5121034;27;20199;-76
2021/12/10 03:09:23;;;;;;;36.97;13.23;;;9.40;91.30;;;;;;5117357;27;20262;-76
2021/12/10 03:11:53;;;;;;;34.37;12.73;;;9.30;91.30;;;;;;5120236;27;20714;-76
2021/12/10 03:14:27;;;;;;;36.40;14.90;;;9.40;91.40;;;;;;5120504;27;20188;-76
2021/12/10 03:16:59;;;;;;;34.27;13.17;;;9.30;91.50;;;;;;5120028;27;20192;-76
2021/12/10 03:19:28;;;;;;;43.63;13.30;;;9.30;91.60;;;;;;5121656;27;20219;-76
2021/12/10 03:21:56;;;;;;;48.53;15.20;;;9.20;91.60;;;;;;5111831;27;20437;-76
2021/12/10 03:24:28;;;;;;;38.27;13.80;;;9.30;91.90;;;;;;5123056;27;20200;-76
2021/12/10 03:26:58;;;;;;;41.13;14.63;;;9.30;91.90;;;;;;5119944;27;20196;-76
2021/12/10 03:29:29;;;;;;;47.83;13.10;;;9.30;91.90;;;;;;5116229;27;20224;-77
2021/12/10 03:31:59;;;;;;;32.73;13.20;;;9.30;91.90;;;;;;5124039;27;20195;-76
2021/12/10 03:34:27;;;;;;;46.43;14.57;;;9.30;91.90;;;;;;5112534;27;20518;-76
2021/12/10 03:36:56;;;;;;;38.30;13.50;;;9.30;91.90;;;;;;5120602;27;20189;-76
2021/12/10 03:39:30;;;;;;;36.57;12.77;;;9.30;91.90;;;;;;5117055;27;20561;-75
2021/12/10 03:42:00;;;;;;;44.37;14.40;;;9.30;91.90;;;;;;5121572;27;20199;-76
2021/12/10 03:44:29;;;;;;;38.17;14.43;;;9.30;92.00;;;;;;5120308;27;20228;-77
2021/12/10 03:46:59;;;;;;;46.43;13.87;;;9.30;92.10;;;;;;5118199;27;20197;-75
2021/12/10 03:49:27;;;;;;;34.70;12.87;;;9.30;92.10;;;;;;5117879;27;20205;-76
2021/12/10 03:51:56;;;;;;;35.47;13.57;;;9.30;92.10;;;;;;5117002;27;20192;-76
2021/12/10 03:54:24;;;;;;;58.03;15.47;;;9.30;92.20;;;;;;5119748;27;20193;-77
2021/12/10 03:56:55;;;;;;;41.60;13.63;;;9.30;92.50;;;;;;5114083;27;20189;-76
2021/12/10 03:59:24;;;;;;;31.20;13.57;;;9.30;92.20;;;;;;5116317;27;20813;-76
2021/12/10 04:01:55;;;;;;;39.93;13.63;;;9.30;92.30;;;;;;5113963;27;20606;-76
2021/12/10 04:04:28;;;;;;;37.07;13.47;;;9.20;92.40;;;;;;5120327;27;20189;-75
2021/12/10 04:06:58;;;;;;;45.90;13.50;;;9.30;92.40;;;;;;5109452;27;20196;-76
2021/12/10 04:09:27;;;;;;;40.87;13.33;;;9.20;92.40;;;;;;5119208;27;20231;-75
2021/12/10 04:11:57;;;;;;;32.83;13.60;;;9.20;92.50;;;;;;5119335;27;20249;-77
2021/12/10 04:14:26;;;;;;;33.37;13.43;;;9.20;92.60;;;;;;5120976;27;20203;-75
2021/12/10 04:16:56;;;;;;;36.67;12.70;;;9.30;92.60;;;;;;5114193;27;20859;-76
2021/12/10 04:19:27;;;;;;;35.07;12.67;;;9.30;92.60;;;;;;5124764;27;20852;-75
2021/12/10 04:21:57;;;;;;;38.07;13.70;;;9.20;92.80;;;;;;5120423;27;20191;-75
2021/12/10 04:24:30;;;;;;;36.53;13.33;;;9.30;92.70;;;;;;5120853;27;20267;-75
2021/12/10 04:27:01;;;;;;;40.17;13.60;;;9.30;92.60;;;;;;5115668;27;20192;-76
2021/12/10 04:29:30;;;;;;;29.73;12.60;;;9.40;92.50;;;;;;5122709;27;20208;-76
2021/12/10 04:31:59;;;;;;;36.53;13.90;;;9.40;92.50;;;;;;5121642;27;20192;-76
2021/12/10 04:34:28;;;;;;;29.50;12.20;;;9.40;92.40;;;;;;5114044;27;20237;-77
2021/12/10 04:37:00;;;;;;;34.87;12.90;;;9.40;92.50;;;;;;5121143;27;20191;-76
2021/12/10 04:39:29;;;;;;;30.53;12.17;;;9.40;92.50;;;;;;5119877;27;20789;-75
2021/12/10 04:41:58;;;;;;;30.27;11.47;;;9.50;92.50;;;;;;5118300;27;20397;-75
2021/12/10 04:44:28;;;;;;;32.17;13.03;;;9.50;92.50;;;;;;5118390;27;20196;-75
2021/12/10 04:46:57;;;;;;;30.23;11.70;;;9.50;92.50;;;;;;5119177;27;20188;-76
2021/12/10 04:49:25;;;;;;;52.17;13.17;;;9.60;92.40;;;;;;5115444;27;20219;-75
2021/12/10 04:51:56;;;;;;;33.40;12.33;;;9.60;92.40;;;;;;5116186;27;20200;-75
2021/12/10 04:54:26;;;;;;;32.47;12.43;;;9.60;92.30;;;;;;5118534;27;20189;-76
2021/12/10 04:56:58;;;;;;;38.77;11.83;;;9.60;92.30;;;;;;5118778;27;20875;-76
2021/12/10 04:59:30;;;;;;;33.50;12.70;;;9.60;92.30;;;;;;5119025;27;20296;-76
2021/12/10 05:02:02;;;;;;;29.50;12.23;;;9.60;92.40;;;;;;5115827;27;20180;-75
2021/12/10 05:04:30;;;;;;;37.90;13.63;;;9.60;92.50;;;;;;5110192;27;20792;-76
2021/12/10 05:06:59;;;;;;;35.13;12.77;;;9.60;92.40;;;;;;5120320;27;20850;-76
2021/12/10 05:09:28;;;;;;;38.80;13.10;;;9.60;92.40;;;;;;5121820;27;20944;-76
2021/12/10 05:11:57;;;;;;;29.80;13.33;;;9.70;92.40;;;;;;5115941;27;20635;-76
2021/12/10 05:14:26;;;;;;;28.00;11.10;;;9.70;92.30;;;;;;5112074;27;20193;-75
2021/12/10 05:17:03;;;;;;;28.90;12.00;;;9.70;92.30;;;;;;5121514;27;20260;-76
2021/12/10 05:19:33;;;;;;;35.40;13.57;;;9.70;92.30;;;;;;5121672;27;20290;-75
2021/12/10 05:22:04;;;;;;;35.50;12.50;;;9.70;92.30;;;;;;5114040;27;20219;-76
2021/12/10 05:24:33;;;;;;;35.47;12.63;;;9.70;92.20;;;;;;5109724;27;20524;-76
2021/12/10 05:27:02;;;;;;;32.60;12.73;;;9.80;92.30;;;;;;5119621;27;20662;-76
2021/12/10 05:29:31;;;;;;;42.60;14.03;;;9.80;92.20;;;;;;5118178;27;20495;-75
2021/12/10 05:32:00;;;;;;;32.00;12.20;;;9.80;92.20;;;;;;5119775;27;20536;-75
2021/12/10 05:34:29;;;;;;;35.87;12.27;;;9.80;92.30;;;;;;5121621;27;20776;-76
2021/12/10 05:36:58;;;;;;;40.00;13.20;;;9.90;92.30;;;;;;5121608;27;20188;-76
2021/12/10 05:39:27;;;;;;;47.57;12.97;;;9.80;92.30;;;;;;5111499;27;20201;-76
2021/12/10 05:41:56;;;;;;;38.93;13.80;;;9.80;92.30;;;;;;5120500;27;20195;-75
2021/12/10 05:44:24;;;;;;;31.67;11.97;;;9.80;92.40;;;;;;5119478;27;20190;-75
2021/12/10 05:46:53;;;;;;;44.50;13.03;;;9.80;92.50;;;;;;5111670;27;20196;-75
2021/12/10 05:49:22;;;;;;;38.03;13.73;;;9.80;92.60;;;;;;5109083;27;20199;-76
2021/12/10 05:51:51;;;;;;;45.00;12.80;;;9.70;92.60;;;;;;5116539;27;20227;-76
2021/12/10 05:54:19;;;;;;;40.03;13.47;;;9.70;92.60;;;;;;5117393;27;20726;-75
2021/12/10 05:56:47;;;;;;;34.27;12.93;;;9.70;92.70;;;;;;5117085;27;20574;-76
2021/12/10 05:59:16;;;;;;;37.57;14.13;;;9.80;92.70;;;;;;5109802;27;20196;-76
2021/12/10 06:01:45;;;;;;;37.43;13.53;;;9.80;92.80;;;;;;5117722;27;20192;-75
2021/12/10 06:04:13;;;;;;;35.50;13.27;;;9.80;92.60;;;;;;5116805;27;20240;-76
2021/12/10 06:06:43;;;;;;;40.33;12.43;;;9.90;92.60;;;;;;5118835;28;20196;-76
2021/12/10 06:09:11;;;;;;;37.47;13.23;;;10.00;92.50;;;;;;5116716;27;20200;-76
2021/12/10 06:11:39;;;;;;;35.83;13.70;;;10.00;92.60;;;;;;5113030;27;20270;-75
2021/12/10 06:14:09;;;;;;;34.57;13.33;;;10.00;92.50;;;;;;5119871;28;20199;-76
2021/12/10 06:16:37;;;;;;;49.70;14.17;;;10.10;92.50;;;;;;5112510;27;20196;-76
2021/12/10 06:19:08;;;;;;;36.73;13.67;;;10.10;92.40;;;;;;5120051;28;20287;-76
2021/12/10 06:21:38;;;;;;;33.77;13.93;;;10.20;92.40;;;;;;5117187;27;20208;-76
2021/12/10 06:24:08;;;;;;;32.60;14.87;;;10.20;92.30;;;;;;5114738;27;20208;-76
2021/12/10 06:26:36;;;;;;;39.73;13.70;;;10.20;92.30;;;;;;5112421;28;20573;-75
2021/12/10 06:29:05;;;;;;;36.80;13.43;;;10.20;92.20;;;;;;5119107;27;20193;-77
2021/12/10 06:31:34;;;;;;;43.10;12.93;;;10.20;92.30;;;;;;5113740;28;20889;-76
2021/12/10 06:34:03;;;;;;;35.20;14.03;;;10.20;92.30;;;;;;5122737;27;20707;-75
2021/12/10 06:36:34;;;;;;;36.83;14.70;;;10.30;92.30;;;;;;5111835;27;20204;-76
2021/12/10 06:39:04;;;;;;;31.67;13.63;;;10.30;92.30;;;;;;5123105;27;20188;-76
2021/12/10 06:41:34;;;;;;;36.07;13.40;;;10.30;92.20;;;;;;5118024;27;20184;-75
2021/12/10 06:44:04;;;;;;;35.43;14.37;;;10.40;92.20;;;;;;5120038;27;20205;-75
2021/12/10 06:46:33;;;;;;;32.10;14.77;;;10.40;92.30;;;;;;5122333;27;20218;-76
2021/12/10 06:49:02;;;;;;;34.47;14.47;;;10.40;92.20;;;;;;5111082;27;20666;-76
2021/12/10 06:51:30;;;;;;;39.20;13.20;;;10.40;92.20;;;;;;5127683;27;20563;-75
2021/12/10 06:53:59;;;;;;;39.87;15.23;;;10.50;92.20;;;;;;5119371;27;20294;-76
2021/12/10 06:56:29;;;;;;;33.37;14.50;;;10.50;92.20;;;;;;5123181;27;20201;-76
2021/12/10 06:58:59;;;;;;;32.27;13.73;;;10.50;92.20;;;;;;5118607;27;20193;-76
2021/12/10 07:01:31;;;;;;;33.80;14.37;;;10.60;92.20;;;;;;5116343;27;20193;-76
2021/12/10 07:04:04;;;;;;;42.67;13.93;;;10.70;92.20;;;;;;5120111;27;20184;-75
2021/12/10 07:06:33;;;;;;;39.10;13.63;;;10.70;92.20;;;;;;5126031;27;20188;-76
2021/12/10 07:09:02;;;;;;;29.57;13.27;;;10.70;92.10;;;;;;5118186;27;20192;-75
2021/12/10 07:11:30;;;;;;;32.17;13.00;;;10.80;92.10;;;;;;5118659;27;20280;-77
2021/12/10 07:14:00;;;;;;;40.63;14.17;;;10.80;92.10;;;;;;5112888;27;20273;-76
2021/12/10 07:16:30;;;;;;;39.40;16.35;;;10.80;92.00;;;;;;5119157;27;20582;-75
2021/12/10 07:19:01;;;;;;;35.30;14.97;;;10.80;92.20;;;;;;5114848;27;20198;-76
2021/12/10 07:21:31;;;;;;;36.63;15.73;;;10.80;92.20;;;;;;5116667;27;20875;-76
2021/12/10 07:24:01;;;;;;;32.93;14.57;;;10.80;92.10;;;;;;5113751;27;20405;-75
2021/12/10 07:26:30;;;;;;;36.17;14.03;;;10.80;92.10;;;;;;5116861;27;20196;-76
2021/12/10 07:29:01;;;;;;;33.30;14.90;;;10.90;92.10;;;;;;5122106;27;20200;-76
2021/12/10 07:31:30;;;;;;;35.93;15.30;;;10.90;92.20;;;;;;5123614;27;20205;-76
2021/12/10 07:33:58;;;;;;;37.70;14.37;;;10.90;92.10;;;;;;5111516;27;20200;-76
2021/12/10 07:36:27;;;;;;;34.60;14.43;;;10.90;92.10;;;;;;5123446;27;20762;-76
2021/12/10 07:38:57;;;;;;;37.67;14.83;;;11.00;92.10;;;;;;5121639;27;20196;-76
2021/12/10 07:41:25;;;;;;;35.97;15.43;;;11.00;92.10;;;;;;5115137;27;20192;-76
2021/12/10 07:43:54;;;;;;;34.47;14.23;;;11.10;92.00;;;;;;5122023;27;20200;-75
2021/12/10 07:46:24;;;;;;;39.00;13.47;;;11.10;92.00;;;;;;5118188;27;20200;-76
2021/12/10 07:48:53;;;;;;;36.60;15.00;;;11.20;92.00;;;;;;5116216;27;20181;-75
2021/12/10 07:51:26;;;;;;;32.73;13.77;;;11.20;92.00;;;;;;5118270;27;20274;-76
2021/12/10 07:53:57;;;;;;;36.00;14.03;;;11.30;91.90;;;;;;5119027;27;20197;-76
2021/12/10 07:56:27;;;;;;;32.20;13.93;;;11.40;91.90;;;;;;5114853;27;20189;-76
2021/12/10 07:58:56;;;;;;;40.37;15.37;;;11.40;91.80;;;;;;5124324;27;20197;-76
2021/12/10 08:01:29;;;;;;;31.43;14.17;;;11.40;91.70;;;;;;5124987;27;20279;-76
2021/12/10 08:04:00;;;;;;;57.90;17.33;;;11.40;91.60;;;;;;5120011;27;20199;-76
2021/12/10 08:06:31;;;;;;;73.60;18.57;;;11.40;91.50;;;;;;5124844;27;20193;-75
2021/12/10 08:09:00;;;;;;;61.97;17.10;;;11.30;91.50;;;;;;5122133;27;20530;-75
2021/12/10 08:11:29;;;;;;;59.57;18.20;;;11.30;91.50;;;;;;5133053;27;20245;-76
2021/12/10 08:13:57;;;;;;;51.77;16.67;;;11.40;91.50;;;;;;5122116;27;20193;-77
2021/12/10 08:16:27;;;;;;;38.67;15.73;;;11.40;91.60;;;;;;5119841;27;20699;-77
2021/12/10 08:18:56;;;;;;;45.03;17.13;;;11.30;91.60;;;;;;5125063;27;20211;-76
2021/12/10 08:21:25;;;;;;;46.77;16.83;;;11.30;91.50;;;;;;5126937;27;20229;-76
2021/12/10 08:23:55;;;;;;;36.40;16.40;;;11.40;91.60;;;;;;5131536;27;20184;-76
2021/12/10 08:26:23;;;;;;;41.07;14.10;;;11.30;91.50;;;;;;5120104;27;20196;-75
2021/12/10 08:28:52;;;;;;;35.37;14.53;;;11.30;91.50;;;;;;5122214;27;20197;-76
2021/12/10 08:31:21;;;;;;;39.33;15.77;;;11.30;91.50;;;;;;5125983;27;20931;-76
2021/12/10 08:33:51;;;;;;;41.40;15.27;;;11.30;91.50;;;;;;5124698;27;20193;-76
2021/12/10 08:36:22;;;;;;;41.43;15.93;;;11.20;91.50;;;;;;5121831;27;20227;-76
2021/12/10 08:38:52;;;;;;;54.33;17.47;;;11.20;91.50;;;;;;5112919;27;20220;-76
2021/12/10 08:41:23;;;;;;;35.53;14.67;;;11.20;91.60;;;;;;5125716;27;20274;-77
2021/12/10 08:43:53;;;;;;;45.73;15.27;;;11.20;91.60;;;;;;5118695;27;20181;-76
2021/12/10 08:46:22;;;;;;;39.25;15.77;;;11.10;91.60;;;;;;5115867;27;20453;-75
2021/12/10 08:48:52;;;;;;;39.27;15.10;;;11.10;91.60;;;;;;5122668;27;20212;-76
2021/12/10 08:51:25;;;;;;;49.17;15.97;;;11.10;91.60;;;;;;5116674;27;20196;-76
2021/12/10 08:53:54;;;;;;;52.73;15.90;;;11.10;91.60;;;;;;5115731;27;20212;-75
2021/12/10 08:56:23;;;;;;;44.33;15.20;;;11.10;91.60;;;;;;5121775;27;20288;-75
2021/12/10 08:58:52;;;;;;;46.97;15.83;;;11.10;91.70;;;;;;5123318;27;20645;-76
2021/12/10 09:01:24;;;;;;;49.73;15.43;;;11.10;91.70;;;;;;5122896;27;20200;-75
2021/12/10 09:03:56;;;;;;;38.90;14.43;;;11.10;91.70;;;;;;5117451;27;20591;-77
2021/12/10 09:06:28;;;;;;;35.13;13.90;;;11.10;91.70;;;;;;5119871;27;20591;-76
2021/12/10 09:08:58;;;;;;;29.53;14.13;;;11.00;91.70;;;;;;5111536;27;20200;-76
2021/12/10 09:11:27;;;;;;;35.70;14.03;;;11.00;91.80;;;;;;5122046;27;20192;-75
2021/12/10 09:14:16;;;;;;;42.13;17.70;;;11.00;91.70;;;;;;5124074;27;20654;-77
2021/12/10 09:16:45;;;;;;;22.90;11.03;;;10.90;91.70;;;;;;5112492;27;20197;-77
2021/12/10 09:19:17;;;;;;;35.77;13.27;;;10.90;91.60;;;;;;5113322;27;20886;-77
2021/12/10 09:21:46;;;;;;;27.83;12.87;;;10.90;91.60;;;;;;5123327;27;20283;-78
2021/12/10 09:24:18;;;;;;;31.57;14.10;;;10.80;91.70;;;;;;5117476;27;20195;-79
2021/12/10 09:26:49;;;;;;;23.73;10.47;;;10.80;91.70;;;;;;5122218;27;20303;-78
2021/12/10 09:29:18;;;;;;;47.47;15.03;;;10.70;91.70;;;;;;5115232;27;20192;-77
2021/12/10 09:31:46;;;;;;;26.57;13.17;;;10.70;91.70;;;;;;5114138;27;20193;-77
2021/12/10 09:34:19;;;;;;;21.23;11.27;;;10.60;91.70;;;;;;5115527;27;21451;-79
2021/12/10 09:36:49;;;;;;;20.77;9.97;;;10.60;91.80;;;;;;5107987;27;20193;-78
2021/12/10 09:39:20;;;;;;;21.87;10.47;;;10.60;91.80;;;;;;5118895;27;20226;-77
2021/12/10 09:41:50;;;;;;;18.97;9.27;;;10.60;91.80;;;;;;5119237;27;20196;-77
2021/12/10 09:44:19;;;;;;;19.00;9.53;;;10.60;91.90;;;;;;5126054;27;20190;-78
2021/12/10 09:46:49;;;;;;;14.83;7.40;;;10.60;92.00;;;;;;5117881;27;20207;-77
2021/12/10 09:49:23;;;;;;;18.77;8.63;;;10.60;92.00;;;;;;5116474;27;20208;-77
2021/12/10 09:51:54;;;;;;;17.07;8.50;;;10.60;92.00;;;;;;5114508;28;20608;-76
2021/12/10 09:54:27;;;;;;;18.80;9.37;;;10.60;92.10;;;;;;5108127;28;20212;-77
2021/12/10 09:56:59;;;;;;;18.07;8.40;;;10.60;92.10;;;;;;5112071;27;20192;-76
2021/12/10 09:59:27;;;;;;;16.07;7.93;;;10.70;92.20;;;;;;5113627;27;20189;-77
2021/12/10 10:01:57;;;;;;;14.17;7.07;;;10.70;92.30;;;;;;5119298;27;20196;-77
2021/12/10 10:04:33;;;;;;;12.70;6.43;;;10.80;92.20;;;;;;5118119;27;20180;-77
2021/12/10 10:07:06;;;;;;;16.57;7.47;;;10.80;92.20;;;;;;5123034;28;20275;-78
2021/12/10 10:09:34;;;;;;;17.27;7.37;;;10.80;92.00;;;;;;5122695;27;20187;-76
2021/12/10 10:12:07;;;;;;;14.13;6.70;;;10.80;91.90;;;;;;5120132;27;20197;-77
2021/12/10 10:14:36;;;;;;;14.53;6.80;;;10.80;91.90;;;;;;5127403;27;20195;-77
2021/12/10 10:17:07;;;;;;;13.33;6.77;;;10.90;91.90;;;;;;5119280;27;20252;-78
2021/12/10 10:19:37;;;;;;;12.73;6.57;;;10.90;91.80;;;;;;5127847;27;20724;-77
2021/12/10 10:22:10;;;;;;;11.13;5.60;;;10.90;91.60;;;;;;5128735;27;20255;-77
2021/12/10 10:24:38;;;;;;;12.93;7.00;;;10.90;91.50;;;;;;5126189;27;20189;-77
2021/12/10 10:27:10;;;;;;;14.10;6.37;;;11.00;91.50;;;;;;5120576;27;20208;-76
2021/12/10 10:29:43;;;;;;;15.23;6.77;;;11.00;91.60;;;;;;5117049;27;20189;-76
2021/12/10 10:32:15;;;;;;;11.60;7.03;;;11.10;91.60;;;;;;5123976;27;20199;-77
2021/12/10 10:34:49;;;;;;;14.97;6.90;;;11.20;91.70;;;;;;5121016;27;20246;-76
2021/12/10 10:37:19;;;;;;;15.60;7.00;;;11.20;91.60;;;;;;5111594;27;20215;-76
2021/12/10 10:39:48;;;;;;;14.43;6.60;;;11.20;91.50;;;;;;5119164;27;20193;-76
2021/12/10 10:42:21;;;;;;;12.90;6.73;;;11.30;91.50;;;;;;5123046;27;20440;-75
2021/12/10 10:44:56;;;;;;;13.67;6.83;;;11.30;91.50;;;;;;5126558;27;20215;-76
2021/12/10 10:47:26;;;;;;;12.57;7.10;;;11.50;91.60;;;;;;5117309;27;20566;-76
2021/12/10 10:49:58;;;;;;;13.33;7.13;;;11.60;91.40;;;;;;5129179;27;20200;-75
2021/12/10 10:52:30;;;;;;;13.13;6.90;;;11.60;91.10;;;;;;5118674;27;20184;-76
2021/12/10 10:55:17;;;;;;;13.63;7.47;;;11.70;91.10;;;;;;5118165;27;20216;-76
2021/12/10 10:57:52;;;;;;;14.40;7.77;;;11.80;91.20;;;;;;5126063;27;20565;-75
2021/12/10 11:00:29;;;;;;;13.60;7.83;;;11.90;91.20;;;;;;5128586;27;20673;-75
2021/12/10 11:03:04;;;;;;;14.20;7.97;;;12.00;91.10;;;;;;5122039;27;20265;-76
2021/12/10 11:05:35;;;;;;;16.27;9.10;;;12.00;90.90;;;;;;5121166;27;20183;-75
2021/12/10 11:08:07;;;;;;;16.47;8.03;;;12.10;90.80;;;;;;5128450;27;20183;-75
2021/12/10 11:10:39;;;;;;;16.40;8.80;;;12.10;90.40;;;;;;5122505;27;20188;-74
2021/12/10 11:13:14;;;;;;;15.23;7.67;;;12.10;90.30;;;;;;5123809;27;20257;-75
2021/12/10 11:15:57;;;;;;;17.20;8.53;;;12.20;90.30;;;;;;5125381;27;20192;-75
2021/12/10 11:18:26;;;;;;;17.43;8.27;;;12.20;90.30;;;;;;5115476;27;20185;-75
2021/12/10 11:20:56;;;;;;;14.73;7.93;;;12.20;90.20;;;;;;5121257;27;20669;-75
2021/12/10 11:23:26;;;;;;;15.73;8.20;;;12.20;90.30;;;;;;5116411;27;20196;-75
2021/12/10 11:25:56;;;;;;;14.13;8.07;;;12.20;90.20;;;;;;5117305;27;20196;-74
2021/12/10 11:28:26;;;;;;;17.53;8.23;;;12.20;90.10;;;;;;5116370;27;20204;-74
2021/12/10 11:31:03;;;;;;;16.43;8.67;;;12.20;90.00;;;;;;5119596;27;20189;-74
2021/12/10 11:33:34;;;;;;;12.93;7.43;;;12.20;90.00;;;;;;5122033;27;20200;-74
2021/12/10 11:36:08;;;;;;;18.33;7.97;;;12.20;90.00;;;;;;5119781;27;20212;-75
2021/12/10 11:38:38;;;;;;;14.30;7.20;;;12.10;89.70;;;;;;5124637;27;20656;-75
2021/12/10 11:41:09;;;;;;;17.63;9.63;;;12.10;89.90;;;;;;5123453;27;20793;-75
2021/12/10 11:43:56;;;;;;;15.90;8.43;;;12.10;89.70;;;;;;5110085;27;20185;-75
2021/12/10 11:46:47;;;;;;;17.13;9.57;;;12.10;89.70;;;;;;5112246;27;20291;-74
2021/12/10 11:49:22;;;;;;;14.97;8.87;;;12.10;89.90;;;;;;5114953;27;20210;-75
2021/12/10 11:51:58;;;;;;;12.53;7.50;;;12.10;89.90;;;;;;5115280;27;20241;-75
2021/12/10 11:54:35;;;;;;;15.10;8.40;;;12.10;90.00;;;;;;5125154;27;20211;-74
2021/12/10 11:57:12;;;;;;;16.30;7.97;;;12.10;90.00;;;;;;5120901;27;20634;-75
2021/12/10 11:59:45;;;;;;;14.70;8.40;;;12.10;90.00;;;;;;5107622;27;20571;-75
2021/12/10 12:02:17;;;;;;;13.53;7.43;;;12.10;90.00;;;;;;5127270;27;20600;-75
2021/12/10 12:04:49;;;;;;;16.17;8.87;;;12.20;90.00;;;;;;5125041;27;20223;-75
2021/12/10 12:07:26;;;;;;;12.17;7.43;;;12.20;90.00;;;;;;5116305;27;20189;-75
2021/12/10 12:09:57;;;;;;;17.27;8.63;;;12.20;89.90;;;;;;5112723;27;20188;-75
2021/12/10 12:12:29;;;;;;;16.07;8.77;;;12.20;90.00;;;;;;5123222;27;20196;-73
2021/12/10 12:15:19;;;;;;;16.63;9.43;;;12.20;90.00;;;;;;5118234;27;20713;-74
2021/12/10 12:17:49;;;;;;;18.87;10.33;;;12.20;90.00;;;;;;5124857;27;20261;-75
2021/12/10 12:20:39;;;;;;;17.93;10.10;;;12.20;89.90;;;;;;5115706;27;20192;-74
2021/12/10 12:26:04;;;;;;;22.03;12.17;;;12.20;89.80;;;;;;5125226;27;20280;-74
2021/12/10 12:28:54;;;;;;;25.87;13.47;;;12.20;89.70;;;;;;5118302;27;20201;-74
2021/12/10 12:31:44;;;;;;;20.13;11.73;;;12.20;89.70;;;;;;5117655;27;20197;-74
2021/12/10 12:34:15;;;;;;;23.43;12.67;;;12.20;89.60;;;;;;5112216;27;20259;-74
2021/12/10 12:36:56;;;;;;;21.07;11.87;;;12.20;89.70;;;;;;5116251;27;20194;-75
2021/12/10 12:39:34;;;;;;;20.00;10.93;;;12.20;89.70;;;;;;5109873;27;20180;-75
2021/12/10 12:42:07;;;;;;;21.87;11.17;;;12.20;89.70;;;;;;5120473;27;20184;-74
2021/12/10 12:44:40;;;;;;;19.70;11.47;;;12.20;89.80;;;;;;5115794;27;20676;-74
2021/12/10 12:47:32;;;;;;;17.37;9.63;;;12.20;89.80;;;;;;5118245;27;20223;-75
2021/12/10 12:50:07;;;;;;;18.80;10.57;;;12.20;89.70;;;;;;5118008;27;20177;-75
2021/12/10 12:52:44;;;;;;;15.67;9.90;;;12.20;89.60;;;;;;5120709;27;20196;-76
2021/12/10 12:55:40;;;;;;;16.07;7.70;;;12.10;89.40;;;;;;5110720;27;20759;-76
2021/12/10 12:58:18;;;;;;;18.60;9.37;;;12.10;89.30;;;;;;5104158;27;20713;-76
2021/12/10 13:01:12;;;;;;;17.67;8.97;;;12.10;89.40;;;;;;5120459;27;20199;-75
2021/12/10 13:03:44;;;;;;;21.97;10.63;;;12.10;89.40;;;;;;5120978;27;20179;-76
2021/12/10 13:06:38;;;;;;;19.93;10.73;;;12.10;89.50;;;;;;5117494;27;20193;-75